Terminal Aerodrome Forecast
Issued by NWS Cleveland, OH

Home | Current Version | Previous Version | Graphics & Text | Print | Product List | Glossary On
Versions: 1 2 3 4 5 6 7 8 9 10 11 12 13 14 15 16 17 18 19 20 21 22
000
FTUS41 KCLE 240834 AAB
TAFERI
TAF AMD
KERI 240834Z 2409/2506 23005KT P6SM VCSH SCT012 BKN020
      TEMPO 2409/2413 BKN012
     FM241300 26007KT P6SM VCSH BKN015
     FM241600 28012G18KT P6SM BKN020
     FM242300 32012G20KT P6SM BKN030
     FM250300 35009KT P6SM BKN025=

USA.gov is the U.S. government's official web portal to all federal, state and local government web resources and services.